sensor_id;sensor_type;location;lat;lon;timestamp;pressure;altitude;pressure_sealevel;temperature;humidity
81224;BME280;70698;44.402;18.522;2023-11-19T00:00:09;98213.34;;;1.02;72.85
81224;BME280;70698;44.402;18.522;2023-11-19T00:02:41;98224.78;;;0.71;74.63
81224;BME280;70698;44.402;18.522;2023-11-19T00:05:08;98231.53;;;0.74;74.81
81224;BME280;70698;44.402;18.522;2023-11-19T00:07:37;98223.53;;;0.91;73.24
81224;BME280;70698;44.402;18.522;2023-11-19T00:10:16;98222.63;;;0.92;72.68
81224;BME280;70698;44.402;18.522;2023-11-19T00:12:47;98231.00;;;0.96;72.61
81224;BME280;70698;44.402;18.522;2023-11-19T00:15:14;98227.78;;;0.92;72.79
81224;BME280;70698;44.402;18.522;2023-11-19T00:17:41;98232.59;;;0.98;73.56
81224;BME280;70698;44.402;18.522;2023-11-19T00:20:11;98219.97;;;1.06;72.26
81224;BME280;70698;44.402;18.522;2023-11-19T00:22:37;98210.66;;;1.04;72.24
81224;BME280;70698;44.402;18.522;2023-11-19T00:25:03;98208.94;;;0.90;72.17
81224;BME280;70698;44.402;18.522;2023-11-19T00:27:29;98196.28;;;0.85;72.43
81224;BME280;70698;44.402;18.522;2023-11-19T00:29:55;98203.13;;;0.86;72.45
81224;BME280;70698;44.402;18.522;2023-11-19T00:32:22;98187.56;;;0.74;73.03
81224;BME280;70698;44.402;18.522;2023-11-19T00:34:48;98183.06;;;0.63;74.43
81224;BME280;70698;44.402;18.522;2023-11-19T00:37:14;98193.09;;;0.68;75.03
81224;BME280;70698;44.402;18.522;2023-11-19T00:39:43;98208.63;;;0.68;74.59
81224;BME280;70698;44.402;18.522;2023-11-19T00:42:11;98207.34;;;0.47;75.66
81224;BME280;70698;44.402;18.522;2023-11-19T00:44:37;98210.31;;;0.40;76.31
81224;BME280;70698;44.402;18.522;2023-11-19T00:47:03;98216.31;;;0.13;77.02
81224;BME280;70698;44.402;18.522;2023-11-19T00:49:31;98210.50;;;-0.05;77.71
81224;BME280;70698;44.402;18.522;2023-11-19T00:52:00;98207.19;;;0.21;76.65
81224;BME280;70698;44.402;18.522;2023-11-19T00:54:27;98203.88;;;0.33;75.35
81224;BME280;70698;44.402;18.522;2023-11-19T00:56:53;98186.75;;;0.45;75.17
81224;BME280;70698;44.402;18.522;2023-11-19T00:59:19;98185.53;;;0.51;74.86
81224;BME280;70698;44.402;18.522;2023-11-19T01:01:45;98190.63;;;0.52;74.11
81224;BME280;70698;44.402;18.522;2023-11-19T01:04:10;98184.47;;;0.55;73.80
81224;BME280;70698;44.402;18.522;2023-11-19T01:06:36;98191.19;;;0.57;73.91
81224;BME280;70698;44.402;18.522;2023-11-19T01:09:02;98187.25;;;0.09;75.88
81224;BME280;70698;44.402;18.522;2023-11-19T01:11:28;98210.53;;;0.09;77.39
81224;BME280;70698;44.402;18.522;2023-11-19T01:13:53;98215.84;;;-0.08;77.98
81224;BME280;70698;44.402;18.522;2023-11-19T01:16:19;98204.09;;;-0.14;78.03
81224;BME280;70698;44.402;18.522;2023-11-19T01:18:47;98204.66;;;-0.09;78.68
81224;BME280;70698;44.402;18.522;2023-11-19T01:21:14;98204.03;;;0.30;75.90
81224;BME280;70698;44.402;18.522;2023-11-19T01:23:43;98198.06;;;0.30;75.16
81224;BME280;70698;44.402;18.522;2023-11-19T01:26:09;98193.13;;;0.25;74.91
81224;BME280;70698;44.402;18.522;2023-11-19T01:28:36;98192.06;;;0.29;74.83
81224;BME280;70698;44.402;18.522;2023-11-19T01:31:02;98203.47;;;0.25;75.21
81224;BME280;70698;44.402;18.522;2023-11-19T01:33:29;98198.06;;;0.30;75.00
81224;BME280;70698;44.402;18.522;2023-11-19T01:35:55;98200.25;;;0.22;74.95
81224;BME280;70698;44.402;18.522;2023-11-19T01:38:24;98202.47;;;0.28;76.35
81224;BME280;70698;44.402;18.522;2023-11-19T01:40:50;98195.09;;;-0.07;77.94
81224;BME280;70698;44.402;18.522;2023-11-19T01:43:38;98181.50;;;-0.24;78.91
81224;BME280;70698;44.402;18.522;2023-11-19T01:46:07;98176.44;;;0.03;77.26
81224;BME280;70698;44.402;18.522;2023-11-19T01:48:36;98182.38;;;0.19;77.03
81224;BME280;70698;44.402;18.522;2023-11-19T01:51:05;98167.41;;;0.24;76.02
81224;BME280;70698;44.402;18.522;2023-11-19T01:53:31;98169.59;;;0.16;75.71
81224;BME280;70698;44.402;18.522;2023-11-19T01:55:57;98178.19;;;0.16;75.60
81224;BME280;70698;44.402;18.522;2023-11-19T01:58:24;98166.75;;;0.06;75.81
81224;BME280;70698;44.402;18.522;2023-11-19T02:00:50;98175.53;;;0.18;75.88
81224;BME280;70698;44.402;18.522;2023-11-19T02:03:16;98182.56;;;0.30;76.16
81224;BME280;70698;44.402;18.522;2023-11-19T02:05:42;98183.47;;;0.15;75.98
81224;BME280;70698;44.402;18.522;2023-11-19T02:08:08;98180.97;;;0.13;76.32
81224;BME280;70698;44.402;18.522;2023-11-19T02:10:34;98175.44;;;0.19;74.25
81224;BME280;70698;44.402;18.522;2023-11-19T02:13:00;98175.25;;;0.22;74.49
81224;BME280;70698;44.402;18.522;2023-11-19T02:15:26;98167.22;;;0.27;74.52
81224;BME280;70698;44.402;18.522;2023-11-19T02:17:52;98147.94;;;0.18;74.51
81224;BME280;70698;44.402;18.522;2023-11-19T02:20:18;98154.00;;;0.17;74.97
81224;BME280;70698;44.402;18.522;2023-11-19T02:22:46;98138.88;;;0.11;75.14
81224;BME280;70698;44.402;18.522;2023-11-19T02:25:23;98148.66;;;0.20;75.55
81224;BME280;70698;44.402;18.522;2023-11-19T02:27:58;98140.34;;;0.15;75.25
81224;BME280;70698;44.402;18.522;2023-11-19T02:30:25;98134.91;;;0.20;75.45
81224;BME280;70698;44.402;18.522;2023-11-19T02:33:01;98134.09;;;0.19;75.15
81224;BME280;70698;44.402;18.522;2023-11-19T02:35:28;98133.97;;;0.21;74.92
81224;BME280;70698;44.402;18.522;2023-11-19T02:37:57;98128.63;;;0.24;75.23
81224;BME280;70698;44.402;18.522;2023-11-19T02:40:25;98127.72;;;0.25;74.48
81224;BME280;70698;44.402;18.522;2023-11-19T02:42:51;98102.22;;;0.19;74.22
81224;BME280;70698;44.402;18.522;2023-11-19T02:45:18;98124.00;;;0.29;73.94
81224;BME280;70698;44.402;18.522;2023-11-19T02:47:44;98117.25;;;0.26;73.97
81224;BME280;70698;44.402;18.522;2023-11-19T02:50:10;98124.44;;;0.35;73.48
81224;BME280;70698;44.402;18.522;2023-11-19T02:52:41;98118.63;;;0.32;73.41
81224;BME280;70698;44.402;18.522;2023-11-19T02:55:08;98107.28;;;0.34;73.44
81224;BME280;70698;44.402;18.522;2023-11-19T02:57:41;98102.91;;;0.35;73.62
81224;BME280;70698;44.402;18.522;2023-11-19T03:00:19;98088.09;;;0.24;73.61
81224;BME280;70698;44.402;18.522;2023-11-19T03:02:49;98083.41;;;0.17;73.66
81224;BME280;70698;44.402;18.522;2023-11-19T03:05:25;98088.75;;;0.14;74.12
81224;BME280;70698;44.402;18.522;2023-11-19T03:07:52;98092.72;;;0.19;74.13
81224;BME280;70698;44.402;18.522;2023-11-19T03:10:17;98070.97;;;0.09;74.31
81224;BME280;70698;44.402;18.522;2023-11-19T03:12:44;98081.75;;;0.02;74.81
81224;BME280;70698;44.402;18.522;2023-11-19T03:15:11;98072.19;;;-0.11;75.21
81224;BME280;70698;44.402;18.522;2023-11-19T03:17:40;98084.44;;;0.00;75.01
81224;BME280;70698;44.402;18.522;2023-11-19T03:20:08;98073.75;;;-0.08;74.80
81224;BME280;70698;44.402;18.522;2023-11-19T03:22:44;98072.00;;;-0.08;75.07
81224;BME280;70698;44.402;18.522;2023-11-19T03:25:10;98061.72;;;-0.09;74.83
81224;BME280;70698;44.402;18.522;2023-11-19T03:27:39;98045.59;;;-0.13;74.64
81224;BME280;70698;44.402;18.522;2023-11-19T03:30:10;98045.22;;;-0.07;74.65
81224;BME280;70698;44.402;18.522;2023-11-19T03:32:37;98048.16;;;0.02;74.50
81224;BME280;70698;44.402;18.522;2023-11-19T03:35:04;98055.34;;;0.11;74.24
81224;BME280;70698;44.402;18.522;2023-11-19T03:37:33;98057.63;;;0.15;73.99
81224;BME280;70698;44.402;18.522;2023-11-19T03:39:59;98065.34;;;0.03;75.75
81224;BME280;70698;44.402;18.522;2023-11-19T03:42:28;98068.41;;;-0.05;77.13
81224;BME280;70698;44.402;18.522;2023-11-19T03:44:56;98072.84;;;-0.21;78.61
81224;BME280;70698;44.402;18.522;2023-11-19T03:47:22;98075.88;;;-0.29;78.16
81224;BME280;70698;44.402;18.522;2023-11-19T03:49:49;98061.31;;;-0.16;77.27
81224;BME280;70698;44.402;18.522;2023-11-19T03:52:14;98076.97;;;-0.19;77.76
81224;BME280;70698;44.402;18.522;2023-11-19T03:54:40;98054.22;;;-0.40;77.99
81224;BME280;70698;44.402;18.522;2023-11-19T03:57:06;98049.78;;;-0.67;78.48
81224;BME280;70698;44.402;18.522;2023-11-19T03:59:32;98041.47;;;-0.58;79.12
81224;BME280;70698;44.402;18.522;2023-11-19T04:01:58;98043.97;;;-0.56;77.43
81224;BME280;70698;44.402;18.522;2023-11-19T04:04:26;98041.47;;;-0.44;77.08
81224;BME280;70698;44.402;18.522;2023-11-19T04:06:53;98049.59;;;-0.35;76.36
81224;BME280;70698;44.402;18.522;2023-11-19T04:09:19;98034.38;;;-0.26;76.23
81224;BME280;70698;44.402;18.522;2023-11-19T04:11:45;98009.47;;;-0.27;75.62
81224;BME280;70698;44.402;18.522;2023-11-19T04:14:13;97996.53;;;-0.27;75.14
81224;BME280;70698;44.402;18.522;2023-11-19T04:16:39;97988.44;;;-0.21;75.06
81224;BME280;70698;44.402;18.522;2023-11-19T04:19:05;98003.44;;;-0.13;74.08
81224;BME280;70698;44.402;18.522;2023-11-19T04:21:32;97982.97;;;-0.16;73.79
81224;BME280;70698;44.402;18.522;2023-11-19T04:23:58;98002.59;;;-0.14;74.16
81224;BME280;70698;44.402;18.522;2023-11-19T04:26:24;98015.44;;;-0.12;74.15
81224;BME280;70698;44.402;18.522;2023-11-19T04:28:49;98013.31;;;-0.06;74.08
81224;BME280;70698;44.402;18.522;2023-11-19T04:31:15;98011.09;;;-0.12;73.96
81224;BME280;70698;44.402;18.522;2023-11-19T04:33:44;98010.06;;;-0.09;73.63
81224;BME280;70698;44.402;18.522;2023-11-19T04:36:10;98004.59;;;-0.05;73.80
81224;BME280;70698;44.402;18.522;2023-11-19T04:38:37;97998.81;;;-0.08;73.53
81224;BME280;70698;44.402;18.522;2023-11-19T04:41:05;98003.81;;;-0.05;73.86
81224;BME280;70698;44.402;18.522;2023-11-19T04:43:34;97998.72;;;-0.07;73.98
81224;BME280;70698;44.402;18.522;2023-11-19T04:45:59;97990.84;;;-0.32;75.42
81224;BME280;70698;44.402;18.522;2023-11-19T04:48:25;97997.00;;;-0.34;77.45
81224;BME280;70698;44.402;18.522;2023-11-19T04:50:51;97981.72;;;-0.37;77.26
81224;BME280;70698;44.402;18.522;2023-11-19T04:53:18;97992.13;;;-0.39;77.04
81224;BME280;70698;44.402;18.522;2023-11-19T04:55:43;97982.47;;;-0.78;78.11
81224;BME280;70698;44.402;18.522;2023-11-19T04:58:09;97976.38;;;-0.91;80.79
81224;BME280;70698;44.402;18.522;2023-11-19T05:00:35;97979.13;;;-0.94;81.14
81224;BME280;70698;44.402;18.522;2023-11-19T05:03:00;97965.03;;;-0.89;80.71
81224;BME280;70698;44.402;18.522;2023-11-19T05:05:26;97956.31;;;-1.00;80.65
81224;BME280;70698;44.402;18.522;2023-11-19T05:07:52;97961.34;;;-0.99;81.75
81224;BME280;70698;44.402;18.522;2023-11-19T05:10:18;97944.94;;;-1.12;81.11
81224;BME280;70698;44.402;18.522;2023-11-19T05:12:44;97938.25;;;-1.00;82.21
81224;BME280;70698;44.402;18.522;2023-11-19T05:15:10;97939.88;;;-0.99;82.84
81224;BME280;70698;44.402;18.522;2023-11-19T05:17:37;97946.34;;;-0.92;82.29
81224;BME280;70698;44.402;18.522;2023-11-19T05:20:03;97929.47;;;-1.12;82.14
81224;BME280;70698;44.402;18.522;2023-11-19T05:22:29;97929.75;;;-1.02;83.57
81224;BME280;70698;44.402;18.522;2023-11-19T05:24:55;97924.31;;;-0.83;79.91
81224;BME280;70698;44.402;18.522;2023-11-19T05:27:21;97922.19;;;-0.77;78.79
81224;BME280;70698;44.402;18.522;2023-11-19T05:29:49;97922.94;;;-1.03;80.51
81224;BME280;70698;44.402;18.522;2023-11-19T05:32:14;97928.84;;;-0.87;79.74
81224;BME280;70698;44.402;18.522;2023-11-19T05:34:40;97914.84;;;-1.11;80.08
81224;BME280;70698;44.402;18.522;2023-11-19T05:37:06;97933.97;;;-1.29;80.91
81224;BME280;70698;44.402;18.522;2023-11-19T05:39:31;97955.38;;;-1.43;82.35
81224;BME280;70698;44.402;18.522;2023-11-19T05:41:57;97966.72;;;-1.46;82.18
81224;BME280;70698;44.402;18.522;2023-11-19T05:44:23;97957.75;;;-1.54;83.32
81224;BME280;70698;44.402;18.522;2023-11-19T05:46:48;97975.34;;;-1.77;83.44
81224;BME280;70698;44.402;18.522;2023-11-19T05:49:14;97961.50;;;-1.90;84.16
81224;BME280;70698;44.402;18.522;2023-11-19T05:51:40;97966.88;;;-1.79;84.92
81224;BME280;70698;44.402;18.522;2023-11-19T05:54:07;97968.28;;;-1.73;84.79
81224;BME280;70698;44.402;18.522;2023-11-19T05:56:33;97965.81;;;-1.75;84.47
81224;BME280;70698;44.402;18.522;2023-11-19T05:58:59;97967.28;;;-1.70;85.10
81224;BME280;70698;44.402;18.522;2023-11-19T06:01:40;97977.03;;;-1.46;85.38
81224;BME280;70698;44.402;18.522;2023-11-19T06:04:07;97973.38;;;-1.27;85.39
81224;BME280;70698;44.402;18.522;2023-11-19T06:06:33;97978.72;;;-1.31;84.38
81224;BME280;70698;44.402;18.522;2023-11-19T06:08:58;97981.91;;;-1.11;84.65
81224;BME280;70698;44.402;18.522;2023-11-19T06:11:24;97980.88;;;-1.09;82.62
81224;BME280;70698;44.402;18.522;2023-11-19T06:13:52;97978.22;;;-1.07;83.97
81224;BME280;70698;44.402;18.522;2023-11-19T06:16:18;97963.91;;;-1.13;82.90
81224;BME280;70698;44.402;18.522;2023-11-19T06:18:44;97982.06;;;-1.14;83.83
81224;BME280;70698;44.402;18.522;2023-11-19T06:21:11;97970.38;;;-1.20;83.31
81224;BME280;70698;44.402;18.522;2023-11-19T06:23:37;97973.81;;;-1.05;83.73
81224;BME280;70698;44.402;18.522;2023-11-19T06:26:02;97973.44;;;-0.85;83.98
81224;BME280;70698;44.402;18.522;2023-11-19T06:28:28;97970.22;;;-0.60;83.41
81224;BME280;70698;44.402;18.522;2023-11-19T06:30:54;97966.69;;;-0.45;82.84
81224;BME280;70698;44.402;18.522;2023-11-19T06:33:19;97956.97;;;-0.27;82.73
81224;BME280;70698;44.402;18.522;2023-11-19T06:35:45;97946.97;;;-0.19;82.15
81224;BME280;70698;44.402;18.522;2023-11-19T06:38:11;97952.25;;;-0.21;82.77
81224;BME280;70698;44.402;18.522;2023-11-19T06:40:36;97959.47;;;-0.26;81.49
81224;BME280;70698;44.402;18.522;2023-11-19T06:43:03;97969.19;;;-0.03;80.32
81224;BME280;70698;44.402;18.522;2023-11-19T06:45:29;97962.59;;;0.06;80.63
81224;BME280;70698;44.402;18.522;2023-11-19T06:47:55;97954.59;;;0.23;81.08
81224;BME280;70698;44.402;18.522;2023-11-19T06:50:20;97962.88;;;0.02;80.91
81224;BME280;70698;44.402;18.522;2023-11-19T06:52:46;97953.06;;;-0.06;81.77
81224;BME280;70698;44.402;18.522;2023-11-19T06:55:12;97952.81;;;-0.16;81.77
81224;BME280;70698;44.402;18.522;2023-11-19T06:57:38;97934.94;;;0.21;81.81
81224;BME280;70698;44.402;18.522;2023-11-19T07:00:05;97948.84;;;0.45;80.36
81224;BME280;70698;44.402;18.522;2023-11-19T07:02:31;97939.78;;;0.52;79.70
81224;BME280;70698;44.402;18.522;2023-11-19T07:04:57;97938.81;;;0.40;80.54
81224;BME280;70698;44.402;18.522;2023-11-19T07:07:23;97951.16;;;0.62;80.75
81224;BME280;70698;44.402;18.522;2023-11-19T07:09:48;97952.94;;;0.62;81.89
81224;BME280;70698;44.402;18.522;2023-11-19T07:12:14;97962.56;;;0.60;79.66
81224;BME280;70698;44.402;18.522;2023-11-19T07:14:40;97965.69;;;0.77;79.10
81224;BME280;70698;44.402;18.522;2023-11-19T07:17:07;97973.88;;;0.84;78.81
81224;BME280;70698;44.402;18.522;2023-11-19T07:19:34;97976.25;;;0.74;78.17
81224;BME280;70698;44.402;18.522;2023-11-19T07:22:02;97984.44;;;0.94;77.44
81224;BME280;70698;44.402;18.522;2023-11-19T07:24:27;97981.09;;;0.79;77.42
81224;BME280;70698;44.402;18.522;2023-11-19T07:26:54;97961.91;;;0.56;79.44
81224;BME280;70698;44.402;18.522;2023-11-19T07:29:20;97966.91;;;0.59;81.05
81224;BME280;70698;44.402;18.522;2023-11-19T07:31:48;97978.88;;;0.60;79.52
81224;BME280;70698;44.402;18.522;2023-11-19T07:34:14;97972.69;;;0.75;78.13
81224;BME280;70698;44.402;18.522;2023-11-19T07:36:40;97965.41;;;0.95;78.47
81224;BME280;70698;44.402;18.522;2023-11-19T07:39:06;97963.31;;;0.74;77.75
81224;BME280;70698;44.402;18.522;2023-11-19T07:41:34;97946.13;;;0.86;78.41
81224;BME280;70698;44.402;18.522;2023-11-19T07:44:04;97937.00;;;0.80;76.42
81224;BME280;70698;44.402;18.522;2023-11-19T07:46:30;97956.28;;;1.02;76.59
81224;BME280;70698;44.402;18.522;2023-11-19T07:48:57;97952.13;;;1.12;76.27
81224;BME280;70698;44.402;18.522;2023-11-19T07:51:23;97960.63;;;1.26;76.33
81224;BME280;70698;44.402;18.522;2023-11-19T07:53:49;97956.88;;;1.43;73.37
81224;BME280;70698;44.402;18.522;2023-11-19T07:56:14;97939.34;;;1.59;73.93
81224;BME280;70698;44.402;18.522;2023-11-19T07:58:40;97907.44;;;1.59;73.38
81224;BME280;70698;44.402;18.522;2023-11-19T08:01:07;97913.56;;;1.82;74.04
81224;BME280;70698;44.402;18.522;2023-11-19T08:03:32;97919.72;;;2.15;72.64
81224;BME280;70698;44.402;18.522;2023-11-19T08:06:02;97912.56;;;2.19;71.08
81224;BME280;70698;44.402;18.522;2023-11-19T08:08:28;97905.66;;;2.31;71.10
81224;BME280;70698;44.402;18.522;2023-11-19T08:10:58;97912.88;;;2.49;71.17
81224;BME280;70698;44.402;18.522;2023-11-19T08:13:24;97905.59;;;2.54;70.34
81224;BME280;70698;44.402;18.522;2023-11-19T08:15:51;97909.00;;;2.55;71.11
81224;BME280;70698;44.402;18.522;2023-11-19T08:18:17;97915.09;;;2.78;71.49
81224;BME280;70698;44.402;18.522;2023-11-19T08:20:44;97911.78;;;2.76;71.78
81224;BME280;70698;44.402;18.522;2023-11-19T08:23:10;97903.66;;;2.80;73.10
81224;BME280;70698;44.402;18.522;2023-11-19T08:25:36;97919.09;;;2.71;72.67
81224;BME280;70698;44.402;18.522;2023-11-19T08:28:02;97894.94;;;2.81;72.42
81224;BME280;70698;44.402;18.522;2023-11-19T08:30:29;97895.66;;;3.06;72.76
81224;BME280;70698;44.402;18.522;2023-11-19T08:32:55;97882.78;;;3.04;71.30
81224;BME280;70698;44.402;18.522;2023-11-19T08:35:21;97890.69;;;3.25;73.48
81224;BME280;70698;44.402;18.522;2023-11-19T08:37:47;97876.19;;;3.33;71.92
81224;BME280;70698;44.402;18.522;2023-11-19T08:40:13;97861.88;;;3.39;71.05
81224;BME280;70698;44.402;18.522;2023-11-19T08:42:41;97871.78;;;3.56;70.81
81224;BME280;70698;44.402;18.522;2023-11-19T08:45:07;97871.53;;;3.59;70.70
81224;BME280;70698;44.402;18.522;2023-11-19T08:47:36;97867.25;;;3.69;70.82
81224;BME280;70698;44.402;18.522;2023-11-19T08:50:01;97863.03;;;3.68;70.37
81224;BME280;70698;44.402;18.522;2023-11-19T08:52:30;97888.59;;;3.84;68.95
81224;BME280;70698;44.402;18.522;2023-11-19T08:54:55;97892.47;;;3.89;69.10
81224;BME280;70698;44.402;18.522;2023-11-19T08:57:21;97895.78;;;3.92;68.80
81224;BME280;70698;44.402;18.522;2023-11-19T08:59:47;97890.50;;;4.14;67.45
81224;BME280;70698;44.402;18.522;2023-11-19T09:02:13;97893.19;;;4.23;67.87
81224;BME280;70698;44.402;18.522;2023-11-19T09:04:38;97900.16;;;4.02;68.23
81224;BME280;70698;44.402;18.522;2023-11-19T09:07:04;97896.84;;;3.89;68.79
81224;BME280;70698;44.402;18.522;2023-11-19T09:09:30;97881.84;;;3.93;68.61
81224;BME280;70698;44.402;18.522;2023-11-19T09:11:56;97868.16;;;3.79;68.51
81224;BME280;70698;44.402;18.522;2023-11-19T09:14:21;97860.25;;;3.81;69.37
81224;BME280;70698;44.402;18.522;2023-11-19T09:16:52;97871.69;;;3.89;68.07
81224;BME280;70698;44.402;18.522;2023-11-19T09:19:18;97857.41;;;4.16;68.98
81224;BME280;70698;44.402;18.522;2023-11-19T09:21:44;97839.72;;;4.30;68.34
81224;BME280;70698;44.402;18.522;2023-11-19T09:24:10;97855.59;;;4.48;66.84
81224;BME280;70698;44.402;18.522;2023-11-19T09:26:35;97847.19;;;4.65;67.76
81224;BME280;70698;44.402;18.522;2023-11-19T09:29:02;97844.19;;;4.91;66.26
81224;BME280;70698;44.402;18.522;2023-11-19T09:31:27;97846.69;;;5.32;65.37
81224;BME280;70698;44.402;18.522;2023-11-19T09:33:53;97844.59;;;5.85;62.90
81224;BME280;70698;44.402;18.522;2023-11-19T09:36:19;97841.75;;;6.17;62.74
81224;BME280;70698;44.402;18.522;2023-11-19T09:38:45;97845.38;;;6.82;60.63
81224;BME280;70698;44.402;18.522;2023-11-19T09:41:11;97839.91;;;7.12;58.86
81224;BME280;70698;44.402;18.522;2023-11-19T09:43:39;97842.78;;;7.46;57.34
81224;BME280;70698;44.402;18.522;2023-11-19T09:46:06;97841.44;;;7.60;56.83
81224;BME280;70698;44.402;18.522;2023-11-19T09:48:35;97831.41;;;7.28;56.44
81224;BME280;70698;44.402;18.522;2023-11-19T09:51:03;97821.63;;;7.03;56.76
81224;BME280;70698;44.402;18.522;2023-11-19T09:53:30;97811.69;;;7.16;55.77
81224;BME280;70698;44.402;18.522;2023-11-19T09:55:56;97818.38;;;6.91;56.43
81224;BME280;70698;44.402;18.522;2023-11-19T09:58:22;97808.88;;;7.27;57.63
81224;BME280;70698;44.402;18.522;2023-11-19T10:00:49;97800.88;;;7.56;56.94
81224;BME280;70698;44.402;18.522;2023-11-19T10:03:15;97793.78;;;7.84;56.61
81224;BME280;70698;44.402;18.522;2023-11-19T10:05:41;97789.06;;;8.05;53.85
81224;BME280;70698;44.402;18.522;2023-11-19T10:08:07;97787.06;;;8.16;53.20
81224;BME280;70698;44.402;18.522;2023-11-19T10:10:39;97764.44;;;8.33;56.04
81224;BME280;70698;44.402;18.522;2023-11-19T10:13:05;97756.06;;;8.30;52.98
81224;BME280;70698;44.402;18.522;2023-11-19T10:15:36;97757.06;;;8.88;49.83
81224;BME280;70698;44.402;18.522;2023-11-19T10:18:03;97756.59;;;9.35;48.39
81224;BME280;70698;44.402;18.522;2023-11-19T10:20:37;97750.06;;;9.47;49.81
81224;BME280;70698;44.402;18.522;2023-11-19T10:23:03;97747.50;;;9.71;49.12
81224;BME280;70698;44.402;18.522;2023-11-19T10:25:29;97732.44;;;10.06;48.75
81224;BME280;70698;44.402;18.522;2023-11-19T10:27:56;97721.25;;;9.79;49.87
81224;BME280;70698;44.402;18.522;2023-11-19T10:30:28;97714.03;;;10.22;48.49
81224;BME280;70698;44.402;18.522;2023-11-19T10:33:04;97716.00;;;10.44;45.17
81224;BME280;70698;44.402;18.522;2023-11-19T10:35:34;97705.50;;;10.36;47.23
81224;BME280;70698;44.402;18.522;2023-11-19T10:38:01;97700.91;;;10.14;50.12
81224;BME280;70698;44.402;18.522;2023-11-19T10:40:39;97699.75;;;10.16;49.63
81224;BME280;70698;44.402;18.522;2023-11-19T10:43:06;97674.97;;;10.35;48.13
81224;BME280;70698;44.402;18.522;2023-11-19T10:45:33;97689.44;;;9.66;50.98
81224;BME280;70698;44.402;18.522;2023-11-19T10:47:59;97682.81;;;9.38;51.34
81224;BME280;70698;44.402;18.522;2023-11-19T10:50:26;97674.66;;;9.49;50.99
81224;BME280;70698;44.402;18.522;2023-11-19T10:52:57;97658.09;;;9.89;50.00
81224;BME280;70698;44.402;18.522;2023-11-19T10:55:33;97641.69;;;9.63;52.17
81224;BME280;70698;44.402;18.522;2023-11-19T10:58:05;97628.72;;;9.53;51.40
81224;BME280;70698;44.402;18.522;2023-11-19T11:03:11;97598.47;;;10.30;47.08
81224;BME280;70698;44.402;18.522;2023-11-19T11:05:40;97589.19;;;10.81;46.87
81224;BME280;70698;44.402;18.522;2023-11-19T11:08:07;97566.19;;;11.06;44.40
81224;BME280;70698;44.402;18.522;2023-11-19T11:10:38;97556.91;;;12.22;46.08
81224;BME280;70698;44.402;18.522;2023-11-19T11:13:05;97570.78;;;12.96;44.85
81224;BME280;70698;44.402;18.522;2023-11-19T11:15:31;97583.38;;;12.29;44.83
81224;BME280;70698;44.402;18.522;2023-11-19T11:18:00;97592.44;;;12.41;44.14
81224;BME280;70698;44.402;18.522;2023-11-19T11:20:33;97581.38;;;12.81;44.50
81224;BME280;70698;44.402;18.522;2023-11-19T11:28:43;97598.81;;;12.32;45.09
81224;BME280;70698;44.402;18.522;2023-11-19T11:31:24;97581.06;;;12.40;45.74
81224;BME280;70698;44.402;18.522;2023-11-19T11:36:56;97550.81;;;12.22;43.07
81224;BME280;70698;44.402;18.522;2023-11-19T11:39:28;97547.25;;;12.94;45.11
81224;BME280;70698;44.402;18.522;2023-11-19T11:45:05;97556.75;;;12.24;43.41
81224;BME280;70698;44.402;18.522;2023-11-19T11:50:16;97577.91;;;11.41;47.57
81224;BME280;70698;44.402;18.522;2023-11-19T11:55:35;97577.31;;;11.76;47.06
81224;BME280;70698;44.402;18.522;2023-11-19T11:58:02;97572.75;;;11.10;48.82
81224;BME280;70698;44.402;18.522;2023-11-19T12:03:01;97558.56;;;10.65;48.21
81224;BME280;70698;44.402;18.522;2023-11-19T12:05:29;97572.84;;;10.63;50.88
81224;BME280;70698;44.402;18.522;2023-11-19T12:08:01;97574.97;;;10.67;50.92
81224;BME280;70698;44.402;18.522;2023-11-19T12:10:30;97562.34;;;10.94;50.21
81224;BME280;70698;44.402;18.522;2023-11-19T12:13:01;97556.53;;;11.21;50.44
81224;BME280;70698;44.402;18.522;2023-11-19T12:15:27;97546.81;;;11.96;46.89
81224;BME280;70698;44.402;18.522;2023-11-19T12:17:54;97535.84;;;11.93;46.99
81224;BME280;70698;44.402;18.522;2023-11-19T12:20:22;97536.56;;;11.87;47.52
81224;BME280;70698;44.402;18.522;2023-11-19T12:22:49;97511.91;;;11.50;49.00
81224;BME280;70698;44.402;18.522;2023-11-19T12:25:16;97520.97;;;11.10;49.39
81224;BME280;70698;44.402;18.522;2023-11-19T12:27:47;97533.25;;;10.95;48.22
81224;BME280;70698;44.402;18.522;2023-11-19T12:30:25;97527.56;;;11.06;50.07
81224;BME280;70698;44.402;18.522;2023-11-19T12:32:52;97530.97;;;11.67;48.86
81224;BME280;70698;44.402;18.522;2023-11-19T12:35:22;97520.59;;;11.13;49.46
81224;BME280;70698;44.402;18.522;2023-11-19T12:37:50;97519.16;;;10.65;50.69
81224;BME280;70698;44.402;18.522;2023-11-19T12:40:20;97521.34;;;10.54;51.08
81224;BME280;70698;44.402;18.522;2023-11-19T12:42:47;97521.72;;;10.73;50.63
81224;BME280;70698;44.402;18.522;2023-11-19T12:45:14;97509.31;;;10.59;50.52
81224;BME280;70698;44.402;18.522;2023-11-19T12:47:44;97512.63;;;10.22;53.42
81224;BME280;70698;44.402;18.522;2023-11-19T12:50:13;97517.41;;;10.19;53.90
81224;BME280;70698;44.402;18.522;2023-11-19T12:52:39;97520.38;;;10.16;52.68
81224;BME280;70698;44.402;18.522;2023-11-19T12:55:24;97521.72;;;9.96;54.55
81224;BME280;70698;44.402;18.522;2023-11-19T12:57:51;97503.31;;;10.04;52.75
81224;BME280;70698;44.402;18.522;2023-11-19T13:00:21;97509.06;;;9.99;54.27
81224;BME280;70698;44.402;18.522;2023-11-19T13:02:55;97508.53;;;10.20;54.67
81224;BME280;70698;44.402;18.522;2023-11-19T13:07:48;97512.06;;;11.49;50.13
81224;BME280;70698;44.402;18.522;2023-11-19T13:10:14;97523.38;;;12.31;50.07
81224;BME280;70698;44.402;18.522;2023-11-19T13:12:41;97501.06;;;12.63;46.75
81224;BME280;70698;44.402;18.522;2023-11-19T13:15:22;97488.00;;;11.37;49.13
81224;BME280;70698;44.402;18.522;2023-11-19T13:17:49;97481.97;;;10.68;51.01
81224;BME280;70698;44.402;18.522;2023-11-19T13:20:14;97479.34;;;10.68;52.16